Time;durP1;ratioP1;P1;durP2;ratioP2;P2;SDS_P1;SDS_P2;PMS_P1;PMS_P2;Temp;Humidity;BMP_temperature;BMP_pressure;BME280_temperature;BME280_humidity;BME280_pressure;Samples;Min_cycle;Max_cycle;Signal;HPM_P1;HPM_P2
2023/09/12 00:01:13;;;;;;;14.23;6.30;;;;;;;22.25;49.34;98941.63;4360872;32;33549;-87
2023/09/12 00:03:40;;;;;;;11.32;5.53;;;;;;;22.21;49.38;98945.31;4360866;32;33986;-87
2023/09/12 00:06:08;;;;;;;22.98;6.85;;;;;;;22.20;49.54;98945.34;4371313;32;34964;-87
2023/09/12 00:08:35;;;;;;;12.63;5.95;;;;;;;22.15;49.54;98958.72;4375808;32;33584;-87
2023/09/12 00:11:06;;;;;;;12.40;6.10;;;;;;;22.10;49.88;98952.75;4375709;32;34214;-87
2023/09/12 00:13:33;;;;;;;14.60;6.40;;;;;;;22.13;49.71;98957.06;4361944;32;33805;-87
2023/09/12 00:16:01;;;;;;;13.40;6.53;;;;;;;22.18;49.58;98948.06;4372531;32;35063;-86
2023/09/12 00:18:29;;;;;;;12.60;5.62;;;;;;;22.09;49.57;98951.88;4360725;32;33949;-86
2023/09/12 00:20:59;;;;;;;15.75;6.10;;;;;;;22.12;49.55;98940.31;4360058;32;33610;-86
2023/09/12 00:23:27;;;;;;;14.48;6.20;;;;;;;22.10;49.49;98942.19;4360606;32;34606;-86
2023/09/12 00:25:55;;;;;;;10.45;5.97;;;;;;;22.04;49.79;98948.53;4346718;32;33340;-84
2023/09/12 00:28:22;;;;;;;15.45;6.78;;;;;;;22.09;49.48;98940.47;4346906;32;33681;-85
2023/09/12 00:30:52;;;;;;;18.52;7.30;;;;;;;22.09;49.83;98937.81;4347135;32;32908;-86
2023/09/12 00:33:19;;;;;;;16.50;7.07;;;;;;;22.08;49.99;98944.00;4358823;32;33985;-86
2023/09/12 00:35:47;;;;;;;19.58;6.78;;;;;;;22.10;50.25;98952.75;4358411;32;34646;-85
2023/09/12 00:38:15;;;;;;;14.93;7.35;;;;;;;22.12;50.33;98945.59;4358771;32;34392;-87
2023/09/12 00:40:42;;;;;;;16.98;7.75;;;;;;;22.18;50.24;98939.28;4357695;32;34545;-87
2023/09/12 00:43:10;;;;;;;14.18;7.40;;;;;;;22.21;50.26;98945.31;4358581;32;33756;-83
2023/09/12 00:45:38;;;;;;;13.50;7.32;;;;;;;22.20;50.50;98942.72;4357165;32;33818;-86
2023/09/12 00:48:07;;;;;;;17.75;7.80;;;;;;;22.20;50.63;98935.66;4359346;32;32740;-86
2023/09/12 00:50:35;;;;;;;13.73;7.80;;;;;;;22.05;51.00;98950.28;4344762;32;33435;-87
2023/09/12 00:53:03;;;;;;;16.10;7.68;;;;;;;22.03;51.03;98940.69;4334048;32;33390;-85
2023/09/12 00:55:32;;;;;;;14.45;7.90;;;;;;;22.04;51.35;98948.53;4345456;32;35055;-85
2023/09/12 00:58:01;;;;;;;17.92;8.00;;;;;;;22.04;51.05;98948.53;4345013;32;33672;-86
2023/09/12 01:00:28;;;;;;;16.58;8.40;;;;;;;22.13;50.93;98941.22;4356761;32;33859;-86
2023/09/12 01:02:57;;;;;;;14.95;8.00;;;;;;;22.23;50.80;98948.72;4358613;32;33784;-86
2023/09/12 01:05:24;;;;;;;19.17;8.50;;;;;;;22.08;51.04;98941.37;4346920;32;34157;-87
2023/09/12 01:07:52;;;;;;;16.33;7.28;;;;;;;21.95;51.50;98953.31;4346934;32;33614;-86
2023/09/12 01:10:20;;;;;;;15.57;7.75;;;;;;;21.86;51.52;98944.81;4346590;32;33613;-87
2023/09/12 01:12:47;;;;;;;11.98;7.53;;;;;;;21.95;51.85;98940.13;4359951;32;33835;-86
2023/09/12 01:15:16;;;;;;;18.35;8.02;;;;;;;21.94;51.69;98941.03;4347056;32;34136;-87
2023/09/12 01:17:45;;;;;;;14.77;7.40;;;;;;;21.90;51.49;98940.28;4334326;32;34081;-86
2023/09/12 01:20:16;;;;;;;17.67;8.43;;;;;;;21.89;51.36;98940.31;4360340;32;33086;-86
2023/09/12 01:22:47;;;;;;;14.80;7.78;;;;;;;21.86;51.33;98944.81;4346974;32;33919;-86
2023/09/12 01:25:39;;;;;;;14.43;7.18;;;;;;;21.84;51.44;98946.63;4359696;32;33893;-88
2023/09/12 01:28:09;;;;;;;14.55;7.25;;;;;;;21.99;50.94;98941.72;4360065;32;33894;-86
2023/09/12 01:30:39;;;;;;;11.27;6.82;;;;;;;21.89;51.03;98942.97;4346615;32;34259;-86
2023/09/12 01:33:07;;;;;;;12.40;7.30;;;;;;;22.01;50.68;98942.50;4346556;32;34013;-86
2023/09/12 01:35:35;;;;;;;14.55;7.00;;;;;;;21.90;50.85;98942.06;4346334;32;33856;-87
2023/09/12 01:38:03;;;;;;;12.05;6.82;;;;;;;21.78;51.03;98936.31;4360094;32;33263;-86
2023/09/12 01:40:50;;;;;;;11.85;6.53;;;;;;;21.82;51.02;98931.78;4344633;32;31847;-86
2023/09/12 01:43:21;;;;;;;13.50;7.00;;;;;;;21.85;51.42;98943.06;4346613;32;33591;-86
2023/09/12 01:45:55;;;;;;;11.40;6.75;;;;;;;21.71;51.52;98933.97;4345907;32;35156;-84
2023/09/12 01:48:26;;;;;;;19.37;7.05;;;;;;;21.74;51.49;98939.97;4359129;32;33936;-87
2023/09/12 01:50:54;;;;;;;15.13;7.37;;;;;;;21.73;51.52;98948.81;4358256;32;33242;-84
2023/09/12 01:53:22;;;;;;;14.95;6.97;;;;;;;21.92;51.16;98941.06;4345418;32;34533;-87
2023/09/12 01:55:50;;;;;;;14.43;6.60;;;;;;;21.62;51.78;98945.69;4328266;32;33247;-86
2023/09/12 01:58:17;;;;;;;15.45;8.07;;;;;;;21.60;51.96;98947.53;4345703;32;34749;-86
2023/09/12 02:00:45;;;;;;;12.40;6.60;;;;;;;21.63;51.98;98947.44;4358938;32;34401;-86
2023/09/12 02:03:13;;;;;;;16.02;7.70;;;;;;;21.72;51.83;98947.09;4359384;32;33859;-86
2023/09/12 02:05:41;;;;;;;14.77;6.82;;;;;;;21.58;52.32;98950.22;4359656;32;33995;-87
2023/09/12 02:08:08;;;;;;;13.30;7.85;;;;;;;21.58;52.19;98949.34;4361093;32;33677;-87
2023/09/12 02:10:36;;;;;;;12.82;7.20;;;;;;;21.67;52.23;98953.44;4360673;32;34460;-86
2023/09/12 02:13:03;;;;;;;14.73;7.80;;;;;;;21.64;52.32;98951.78;4332670;32;33192;-85
2023/09/12 02:15:31;;;;;;;18.80;7.97;;;;;;;21.61;52.39;98955.38;4345166;33;35015;-85
2023/09/12 02:17:59;;;;;;;17.90;8.13;;;;;;;21.60;52.74;98956.31;4357542;32;34475;-86
2023/09/12 02:20:27;;;;;;;23.00;8.75;;;;;;;21.59;52.67;98951.06;4347269;32;33566;-86
2023/09/12 02:22:55;;;;;;;14.85;8.18;;;;;;;21.55;52.74;98950.31;4346494;32;34868;-84
2023/09/12 02:25:22;;;;;;;16.10;7.35;;;;;;;21.51;52.73;98953.97;4359753;32;33863;-84
2023/09/12 02:27:50;;;;;;;17.70;8.23;;;;;;;21.49;52.78;98961.09;4360816;32;33751;-86
2023/09/12 02:30:18;;;;;;;17.15;8.55;;;;;;;21.55;52.80;98954.72;4347606;32;33352;-86
2023/09/12 02:32:45;;;;;;;14.55;8.73;;;;;;;21.48;52.95;98958.50;4361061;32;33731;-87
2023/09/12 02:35:13;;;;;;;15.25;8.23;;;;;;;21.50;53.00;98956.69;4361082;32;34019;-86
2023/09/12 02:37:41;;;;;;;16.30;7.85;;;;;;;21.54;52.87;98953.88;4361289;32;34275;-86
2023/09/12 02:40:11;;;;;;;16.65;8.68;;;;;;;21.49;52.92;98953.19;4361144;32;33062;-84
2023/09/12 02:42:39;;;;;;;15.88;8.10;;;;;;;21.55;52.92;98955.59;4361020;32;34070;-86
2023/09/12 02:45:07;;;;;;;11.95;8.50;;;;;;;21.54;52.96;98947.75;4361062;32;34134;-86
2023/09/12 02:47:35;;;;;;;21.52;8.82;;;;;;;21.44;53.13;98951.59;4361255;32;34302;-86
2023/09/12 02:50:04;;;;;;;18.02;8.18;;;;;;;21.48;53.14;98953.22;4335576;32;33513;-87
2023/09/12 02:52:32;;;;;;;18.85;8.88;;;;;;;21.38;53.29;98953.56;4360717;32;34641;-86
2023/09/12 02:54:59;;;;;;;16.20;8.52;;;;;;;21.36;53.46;98952.72;4360861;32;33776;-86
2023/09/12 02:57:27;;;;;;;12.82;7.97;;;;;;;21.40;53.43;98953.50;4361227;32;33828;-85
2023/09/12 02:59:55;;;;;;;18.08;8.13;;;;;;;21.34;53.58;98951.94;4361149;32;33049;-86
2023/09/12 03:02:22;;;;;;;16.37;8.40;;;;;;;21.29;53.61;98948.56;4360954;32;33978;-86
2023/09/12 03:04:50;;;;;;;18.23;9.00;;;;;;;21.32;53.72;98940.53;4346547;33;33916;-86
2023/09/12 03:07:18;;;;;;;14.05;7.97;;;;;;;21.25;53.65;98941.69;4359397;32;35222;-84
2023/09/12 03:09:50;;;;;;;16.90;8.38;;;;;;;21.24;53.88;98950.50;4361091;32;33422;-86
2023/09/12 03:12:17;;;;;;;15.85;8.48;;;;;;;21.29;53.74;98951.22;4334823;32;33998;-86
2023/09/12 03:14:45;;;;;;;17.30;8.75;;;;;;;21.27;53.96;98953.03;4360759;32;34205;-87
2023/09/12 03:17:13;;;;;;;15.05;8.32;;;;;;;21.18;54.05;98949.84;4361079;32;34025;-86
2023/09/12 03:19:41;;;;;;;15.25;8.05;;;;;;;21.15;54.28;98950.81;4360926;32;33272;-85
2023/09/12 03:22:08;;;;;;;15.32;8.75;;;;;;;21.18;53.95;98950.72;4360643;32;34815;-86
2023/09/12 03:24:36;;;;;;;17.95;8.40;;;;;;;21.20;53.93;98953.28;4361126;32;35030;-85
2023/09/12 03:27:04;;;;;;;15.32;8.73;;;;;;;21.14;53.90;98952.59;4361303;32;33799;-84
2023/09/12 03:29:33;;;;;;;14.23;7.20;;;;;;;21.18;53.99;98958.63;4347726;32;32813;-86
2023/09/12 03:32:00;;;;;;;17.58;8.57;;;;;;;21.11;54.03;98962.38;4347299;32;33560;-84
2023/09/12 03:34:28;;;;;;;12.68;8.07;;;;;;;21.12;53.97;98959.69;4360812;32;34243;-85
2023/09/12 03:36:55;;;;;;;13.40;8.02;;;;;;;21.16;53.63;98955.16;4360500;32;33599;-86
2023/09/12 03:39:23;;;;;;;15.07;8.18;;;;;;;21.15;53.67;98953.44;4347484;32;33413;-86
2023/09/12 03:41:51;;;;;;;13.70;7.70;;;;;;;21.17;53.83;98956.87;4361128;32;34433;-86
2023/09/12 03:44:18;;;;;;;17.20;8.52;;;;;;;21.18;53.81;98953.34;4360607;32;33920;-86
2023/09/12 03:46:46;;;;;;;15.95;7.80;;;;;;;21.12;54.29;98962.31;4360720;32;34652;-86
2023/09/12 03:49:14;;;;;;;15.52;8.63;;;;;;;21.14;53.98;98954.38;4360185;32;33516;-84
2023/09/12 03:51:41;;;;;;;15.55;7.93;;;;;;;21.13;53.95;98958.75;4359778;32;33933;-87
2023/09/12 03:54:09;;;;;;;14.05;8.18;;;;;;;21.25;53.63;98962.78;4361130;32;34575;-86
2023/09/12 03:56:37;;;;;;;13.32;8.07;;;;;;;21.18;53.61;98960.41;4347033;32;33299;-86
2023/09/12 03:59:05;;;;;;;15.18;8.32;;;;;;;21.16;53.68;98957.81;4332922;33;35067;-86
2023/09/12 04:01:32;;;;;;;17.27;8.93;;;;;;;21.13;54.09;98964.03;4354664;32;33541;-86
2023/09/12 04:04:00;;;;;;;13.80;8.13;;;;;;;21.10;54.30;98958.00;4358381;32;34057;-86
2023/09/12 04:06:30;;;;;;;18.62;8.98;;;;;;;21.11;54.32;98952.69;4359098;32;33465;-86
2023/09/12 04:08:58;;;;;;;13.45;8.68;;;;;;;21.02;54.46;98952.97;4358928;32;33130;-86
2023/09/12 04:11:26;;;;;;;15.27;7.87;;;;;;;21.00;54.34;98952.19;4359780;32;34553;-86
2023/09/12 04:14:06;;;;;;;18.80;8.57;;;;;;;21.00;54.23;98952.19;4358839;32;34644;-84
2023/09/12 04:16:34;;;;;;;13.55;7.28;;;;;;;20.90;54.58;98954.25;4360309;32;34000;-87
2023/09/12 04:19:03;;;;;;;17.83;8.70;;;;;;;20.81;54.77;98951.06;4346562;32;33341;-87
2023/09/12 04:21:30;;;;;;;12.50;7.90;;;;;;;20.81;54.66;98957.19;4345457;32;33353;-86
2023/09/12 04:23:59;;;;;;;12.77;7.18;;;;;;;20.81;54.48;98959.81;4341670;33;33881;-86
2023/09/12 04:26:27;;;;;;;12.98;8.18;;;;;;;20.75;54.59;98967.91;4334736;32;33686;-85
2023/09/12 04:28:54;;;;;;;15.07;7.75;;;;;;;20.78;54.38;98957.28;4346300;32;33531;-86
2023/09/12 04:31:22;;;;;;;11.48;7.05;;;;;;;20.85;54.28;98963.22;4356429;32;33536;-86
2023/09/12 04:33:53;;;;;;;15.38;8.27;;;;;;;20.77;54.45;98965.25;4357839;32;34616;-86
2023/09/12 04:36:22;;;;;;;15.50;7.60;;;;;;;20.81;54.51;98961.59;4341793;32;32709;-87
2023/09/12 04:38:50;;;;;;;14.13;7.68;;;;;;;20.75;54.63;98967.91;4358805;32;34800;-87
2023/09/12 04:41:17;;;;;;;14.93;8.40;;;;;;;20.83;54.41;98965.03;4357086;32;34355;-87
2023/09/12 04:43:45;;;;;;;12.77;7.72;;;;;;;20.82;54.45;98963.31;4330047;33;33786;-86
2023/09/12 04:46:13;;;;;;;14.38;8.15;;;;;;;20.85;54.70;98966.72;4347648;32;34173;-87
2023/09/12 04:48:41;;;;;;;13.48;7.50;;;;;;;20.93;54.46;98955.94;4345670;32;33124;-88
2023/09/12 04:51:09;;;;;;;11.63;7.43;;;;;;;21.08;54.23;98973.03;4360492;32;34985;-87
2023/09/12 04:53:37;;;;;;;13.68;8.05;;;;;;;21.18;53.88;98971.81;4358674;32;34176;-88
2023/09/12 04:56:06;;;;;;;11.63;7.20;;;;;;;21.33;53.66;98976.59;4358916;32;34021;-88
2023/09/12 04:58:33;;;;;;;14.77;7.43;;;;;;;21.56;53.26;98988.13;4359622;32;33857;-86
2023/09/12 05:01:02;;;;;;;12.65;7.43;;;;;;;21.62;52.99;98982.63;4346105;32;34786;-88
2023/09/12 05:03:30;;;;;;;16.85;7.43;;;;;;;21.83;52.50;98987.16;4360563;32;33719;-87
2023/09/12 05:05:58;;;;;;;13.35;7.40;;;;;;;22.01;52.10;98987.37;4360514;32;33944;-88
2023/09/12 05:08:26;;;;;;;15.85;6.97;;;;;;;22.15;52.01;98993.06;4346993;32;34193;-88
2023/09/12 05:10:53;;;;;;;14.45;6.82;;;;;;;22.29;52.05;98985.47;4359462;32;33989;-88
2023/09/12 05:13:21;;;;;;;13.43;6.93;;;;;;;22.43;51.81;98978.84;4360229;32;34104;-88
2023/09/12 05:15:49;;;;;;;10.88;6.12;;;;;;;22.50;51.35;98983.81;4360342;32;33794;-89
2023/09/12 05:18:17;;;;;;;13.85;6.70;;;;;;;22.53;50.99;98973.09;4346944;32;32911;-88
2023/09/12 05:20:45;;;;;;;14.43;7.20;;;;;;;22.69;50.62;98981.31;4346923;32;33808;-88
2023/09/12 05:23:12;;;;;;;12.77;6.65;;;;;;;22.81;50.25;98977.31;4360756;32;33859;-87
2023/09/12 05:25:40;;;;;;;13.45;6.57;;;;;;;22.87;50.13;98986.78;4359980;32;34002;-87
2023/09/12 05:28:08;;;;;;;11.00;6.78;;;;;;;22.90;50.09;98981.38;4346758;32;33386;-88
2023/09/12 05:30:36;;;;;;;14.32;7.10;;;;;;;23.00;50.17;98982.75;4346664;32;34131;-89
2023/09/12 05:33:03;;;;;;;13.25;6.45;;;;;;;23.08;49.88;98979.81;4359082;32;34141;-88
2023/09/12 05:35:32;;;;;;;14.23;8.40;;;;;;;23.11;49.73;98983.19;4346260;32;33666;-88
2023/09/12 05:37:59;;;;;;;12.15;6.45;;;;;;;22.94;50.20;98988.28;4346725;32;33400;-88
2023/09/12 05:40:27;;;;;;;12.10;6.65;;;;;;;22.97;50.30;98993.44;4359746;32;34823;-88
2023/09/12 05:42:54;;;;;;;11.88;7.32;;;;;;;23.01;50.44;99000.34;4345632;32;33648;-87
2023/09/12 05:45:23;;;;;;;14.87;6.97;;;;;;;22.90;51.01;99002.50;4358966;32;33420;-86
2023/09/12 05:47:51;;;;;;;10.75;6.07;;;;;;;23.00;50.75;99001.25;4346615;32;34065;-87
2023/09/12 05:50:19;;;;;;;14.57;7.25;;;;;;;23.06;50.69;99003.63;4359926;32;34059;-87
2023/09/12 05:52:47;;;;;;;12.63;7.43;;;;;;;22.99;51.12;99000.38;4334208;32;33426;-87
2023/09/12 05:55:15;;;;;;;11.27;6.68;;;;;;;23.03;51.34;99004.66;4359948;32;33803;-87
2023/09/12 05:57:43;;;;;;;10.88;6.47;;;;;;;23.03;51.57;99003.75;4345835;32;33630;-87
2023/09/12 06:00:11;;;;;;;14.48;7.35;;;;;;;23.01;51.85;98995.91;4359418;32;33154;-87
2023/09/12 06:02:42;;;;;;;13.38;6.78;;;;;;;22.95;52.72;99008.50;4346569;32;33962;-86
2023/09/12 06:05:09;;;;;;;14.07;6.90;;;;;;;23.01;52.97;99010.91;4359557;32;34050;-87
2023/09/12 06:07:39;;;;;;;13.43;7.18;;;;;;;23.14;51.90;99009.47;4359636;32;32941;-87
2023/09/12 06:10:09;;;;;;;17.00;7.57;;;;;;;23.05;52.76;99005.44;4359636;32;33561;-87
2023/09/12 06:12:38;;;;;;;15.82;7.68;;;;;;;23.13;51.79;99009.53;4346159;32;34593;-87
2023/09/12 06:15:06;;;;;;;20.23;8.38;;;;;;;23.32;51.46;99013.16;4345788;32;34236;-86
2023/09/12 06:17:34;;;;;;;15.85;8.00;;;;;;;23.40;51.44;99012.81;4333730;32;32251;-87
2023/09/12 06:20:06;;;;;;;16.87;7.45;;;;;;;23.58;51.30;99013.84;4333484;32;32525;-87
2023/09/12 06:22:34;;;;;;;16.90;7.68;;;;;;;23.68;50.83;99017.87;4359533;32;34785;-87
2023/09/12 06:25:01;;;;;;;17.60;7.40;;;;;;;23.51;51.45;99021.19;4345755;32;34109;-87
2023/09/12 06:27:30;;;;;;;17.98;7.80;;;;;;;23.59;51.47;99019.06;4345681;32;33308;-87
2023/09/12 06:29:58;;;;;;;22.35;7.95;;;;;;;23.77;50.50;99017.44;4345991;32;33462;-87
2023/09/12 06:32:26;;;;;;;19.10;7.70;;;;;;;23.77;50.61;99023.59;4359419;32;33711;-87
2023/09/12 06:34:53;;;;;;;19.95;8.30;;;;;;;23.66;49.86;99025.84;4333557;32;32933;-87
2023/09/12 06:37:21;;;;;;;15.77;7.78;;;;;;;23.98;48.55;99021.81;4359245;32;33453;-87
2023/09/12 06:39:50;;;;;;;15.45;7.15;;;;;;;24.16;48.30;99021.91;4358935;32;34125;-87
2023/09/12 06:42:18;;;;;;;14.32;7.45;;;;;;;24.34;48.93;99017.56;4345845;32;34301;-87
2023/09/12 06:44:46;;;;;;;13.98;7.87;;;;;;;24.01;50.26;99020.78;4359357;32;33500;-86
2023/09/12 06:47:14;;;;;;;15.63;7.03;;;;;;;24.14;49.67;99021.97;4347655;32;32678;-87
2023/09/12 06:49:41;;;;;;;14.60;7.50;;;;;;;24.08;50.34;99022.25;4347932;32;33869;-87
2023/09/12 06:52:09;;;;;;;16.80;7.50;;;;;;;24.10;50.84;99025.69;4347573;32;32988;-87
2023/09/12 06:54:37;;;;;;;14.15;6.97;;;;;;;24.23;50.72;99021.56;4347830;32;33925;-87
2023/09/12 06:57:05;;;;;;;13.90;6.90;;;;;;;24.35;50.56;99021.94;4347736;32;33412;-87
2023/09/12 06:59:32;;;;;;;13.62;7.28;;;;;;;24.41;51.15;99024.34;4361074;32;33935;-87
2023/09/12 07:02:00;;;;;;;11.23;7.05;;;;;;;24.46;50.78;99023.19;4361165;32;33911;-87
2023/09/12 07:04:28;;;;;;;13.07;7.30;;;;;;;24.46;50.79;99022.34;4361165;32;34270;-87
2023/09/12 07:06:55;;;;;;;13.68;7.28;;;;;;;24.52;50.38;99022.06;4335429;32;33180;-87
2023/09/12 07:09:24;;;;;;;18.08;7.53;;;;;;;24.56;49.21;99028.94;4335097;32;34090;-87
2023/09/12 07:11:52;;;;;;;22.70;7.75;;;;;;;24.56;49.94;99028.94;4361172;32;34501;-87
2023/09/12 07:14:20;;;;;;;16.02;7.47;;;;;;;24.46;50.83;99030.28;4360928;32;34222;-87
2023/09/12 07:16:48;;;;;;;17.27;7.97;;;;;;;24.64;50.97;99029.44;4347220;32;31908;-87
2023/09/12 07:19:15;;;;;;;14.40;7.37;;;;;;;24.82;50.64;99037.47;4347753;32;33618;-87
2023/09/12 07:21:43;;;;;;;15.13;7.90;;;;;;;24.85;51.04;99034.63;4361024;32;34701;-86
2023/09/12 07:24:11;;;;;;;13.18;7.25;;;;;;;25.15;48.49;99033.19;4360925;32;33809;-87
2023/09/12 07:26:38;;;;;;;14.82;7.50;;;;;;;25.15;49.14;99033.19;4347708;32;33728;-86
2023/09/12 07:29:06;;;;;;;15.68;7.65;;;;;;;25.32;49.10;99037.69;4361109;32;33271;-88
2023/09/12 07:31:34;;;;;;;15.00;7.80;;;;;;;25.45;48.98;99028.16;4347514;32;34232;-87
2023/09/12 07:34:02;;;;;;;17.73;7.53;;;;;;;25.60;48.83;99038.94;4360944;32;33685;-87
2023/09/12 07:36:33;;;;;;;16.40;8.35;;;;;;;25.69;49.67;99035.84;4360897;32;33758;-86
2023/09/12 07:39:00;;;;;;;13.95;7.65;;;;;;;25.93;49.17;99033.72;4360970;32;34787;-86
2023/09/12 07:41:28;;;;;;;10.63;6.97;;;;;;;26.24;48.19;99029.44;4347550;32;34037;-86
2023/09/12 07:43:56;;;;;;;15.10;8.25;;;;;;;26.41;46.94;99029.41;4360876;32;33527;-86
2023/09/12 07:46:24;;;;;;;19.35;8.02;;;;;;;26.57;46.74;99043.59;4347696;32;34045;-86
2023/09/12 07:48:52;;;;;;;14.75;7.43;;;;;;;26.56;46.34;99044.56;4347559;32;33649;-86
2023/09/12 07:51:20;;;;;;;16.80;7.37;;;;;;;26.53;46.94;99031.44;4360675;32;33767;-86
2023/09/12 07:53:48;;;;;;;16.73;7.57;;;;;;;26.92;45.84;99033.66;4360900;32;34668;-86
2023/09/12 07:56:15;;;;;;;17.15;7.65;;;;;;;26.82;45.00;99035.16;4346636;32;33983;-86
2023/09/12 07:58:43;;;;;;;15.98;7.37;;;;;;;27.27;44.71;99028.16;4360389;32;34522;-86
2023/09/12 08:01:10;;;;;;;16.15;7.12;;;;;;;26.87;45.58;99034.88;4360798;32;34869;-86
2023/09/12 08:03:39;;;;;;;15.35;7.72;;;;;;;27.20;44.88;99025.94;4360734;32;34460;-86
2023/09/12 08:06:08;;;;;;;17.90;7.35;;;;;;;27.09;44.64;99030.06;4347253;32;34538;-86
2023/09/12 08:08:36;;;;;;;17.33;7.25;;;;;;;27.20;45.18;99025.94;4347355;32;33696;-85
2023/09/12 08:11:03;;;;;;;20.98;7.35;;;;;;;27.48;44.01;99026.06;4347098;32;34209;-87
2023/09/12 08:13:31;;;;;;;13.02;7.50;;;;;;;27.57;44.16;99020.19;4360513;32;34611;-86
2023/09/12 08:15:59;;;;;;;20.00;8.07;;;;;;;27.75;42.97;99028.91;4360742;32;32716;-86
2023/09/12 08:18:29;;;;;;;15.15;7.18;;;;;;;27.65;42.73;99023.28;4360966;32;34408;-86
2023/09/12 08:20:57;;;;;;;12.80;6.82;;;;;;;28.04;41.46;99029.84;4347157;32;33916;-86
2023/09/12 08:23:25;;;;;;;18.30;7.40;;;;;;;28.11;40.28;99027.66;4347169;32;33469;-85
2023/09/12 08:25:52;;;;;;;14.20;6.95;;;;;;;27.72;39.20;99026.41;4347205;32;34465;-86
2023/09/12 08:28:20;;;;;;;13.13;6.93;;;;;;;27.45;40.50;99025.37;4346867;32;34798;-86
2023/09/12 08:30:47;;;;;;;15.48;6.57;;;;;;;28.14;40.06;99030.09;4347169;32;34946;-86
2023/09/12 08:33:15;;;;;;;14.82;7.03;;;;;;;28.10;39.42;99029.44;4347336;32;33579;-86
2023/09/12 08:35:43;;;;;;;18.15;7.50;;;;;;;28.49;38.25;99030.63;4346920;32;34373;-86
2023/09/12 08:38:11;;;;;;;11.77;7.12;;;;;;;28.47;39.61;99032.53;4347156;32;33329;-86
2023/09/12 08:40:40;;;;;;;15.98;7.55;;;;;;;28.22;38.85;99029.62;4360561;32;34189;-86
2023/09/12 08:43:08;;;;;;;14.40;7.05;;;;;;;28.55;38.86;99029.38;4360341;32;34663;-86
2023/09/12 08:45:36;;;;;;;15.65;6.70;;;;;;;28.74;39.64;99029.06;4360562;32;33377;-86
2023/09/12 08:48:04;;;;;;;14.23;7.30;;;;;;;28.50;38.54;99028.81;4360676;32;34087;-86
2023/09/12 08:50:34;;;;;;;12.82;7.15;;;;;;;28.73;38.31;99027.34;4346937;32;34513;-86
2023/09/12 08:53:01;;;;;;;16.15;7.60;;;;;;;28.70;37.50;99032.87;4346460;32;34188;-86
2023/09/12 08:55:35;;;;;;;15.63;7.45;;;;;;;28.70;38.20;99031.06;4346421;32;33411;-86
2023/09/12 08:58:05;;;;;;;20.60;7.97;;;;;;;28.71;37.74;99027.44;4345911;32;34632;-86
2023/09/12 09:00:33;;;;;;;14.45;7.07;;;;;;;28.63;37.45;99027.06;4345882;32;34902;-87
2023/09/12 09:03:02;;;;;;;14.77;7.72;;;;;;;28.57;37.63;99031.00;4359271;32;34070;-86
2023/09/12 09:05:30;;;;;;;21.45;7.75;;;;;;;28.70;37.71;99028.41;4346107;32;33634;-86
2023/09/12 09:07:58;;;;;;;21.35;7.37;;;;;;;28.45;39.28;99038.91;4359195;32;33700;-87
2023/09/12 09:10:32;;;;;;;20.80;7.68;;;;;;;28.93;37.68;99028.72;4345668;32;33812;-86
2023/09/12 09:13:16;;;;;;;15.40;7.50;;;;;;;29.15;37.49;99028.22;4359359;32;33625;-86
2023/09/12 09:15:43;;;;;;;18.33;7.80;;;;;;;29.06;37.91;99019.03;4359087;32;33383;-86
2023/09/12 09:18:12;;;;;;;19.02;7.50;;;;;;;28.94;37.12;99025.94;4359056;32;33477;-84
2023/09/12 09:20:40;;;;;;;16.62;6.80;;;;;;;29.16;36.58;99014.75;4359300;32;35050;-84
2023/09/12 09:23:10;;;;;;;21.90;7.35;;;;;;;29.28;37.67;99019.31;4359003;32;35184;-84
2023/09/12 09:25:43;;;;;;;13.35;5.72;;;;;;;29.31;38.67;99015.56;4345809;32;32810;-84
2023/09/12 09:28:19;;;;;;;11.32;5.25;;;;;;;29.60;34.13;99018.13;4345586;32;33994;-84
2023/09/12 09:30:48;;;;;;;18.48;5.37;;;;;;;29.64;33.80;99022.31;4345724;32;34084;-84
2023/09/12 09:33:17;;;;;;;12.23;5.20;;;;;;;29.66;32.97;99023.91;4333570;32;34079;-85
2023/09/12 09:35:48;;;;;;;14.32;6.50;;;;;;;29.25;34.07;99024.00;4332954;32;32899;-84
2023/09/12 09:38:19;;;;;;;15.23;6.03;;;;;;;29.52;34.20;99024.81;4358873;32;33102;-84
2023/09/12 09:40:47;;;;;;;12.45;5.28;;;;;;;29.50;33.70;99020.53;4345641;32;33707;-84
2023/09/12 09:43:22;;;;;;;12.10;5.25;;;;;;;29.77;31.90;99028.50;4345426;32;33490;-84
2023/09/12 09:45:50;;;;;;;13.15;5.62;;;;;;;29.57;33.67;99027.16;4358977;32;34039;-85
2023/09/12 09:48:22;;;;;;;18.12;5.62;;;;;;;29.56;32.46;99022.78;4358721;32;34302;-84
2023/09/12 09:50:52;;;;;;;14.35;6.22;;;;;;;29.96;32.48;99025.44;4345414;32;34445;-83
2023/09/12 09:53:26;;;;;;;19.27;6.82;;;;;;;29.95;33.43;99027.25;4352846;32;220289;-85
2023/09/12 09:56:11;;;;;;;12.65;5.40;;;;;;;29.92;33.72;99024.78;4359791;32;33153;-84
2023/09/12 09:58:47;;;;;;;9.77;5.13;;;;;;;30.10;32.98;99024.47;4346342;32;33454;-83
2023/09/12 10:01:22;;;;;;;20.12;6.32;;;;;;;30.45;31.48;99014.84;4346434;32;35144;-84
2023/09/12 10:03:51;;;;;;;16.10;5.72;;;;;;;30.39;32.35;99017.97;4346449;32;35079;-84
2023/09/12 10:06:19;;;;;;;11.30;5.40;;;;;;;30.37;32.76;99013.69;4346076;32;33087;-85
2023/09/12 10:08:51;;;;;;;13.85;5.53;;;;;;;30.64;31.88;99009.03;4359430;32;34646;-87
2023/09/12 10:11:22;;;;;;;18.73;5.47;;;;;;;30.27;32.15;99018.84;4333676;32;33461;-86
2023/09/12 10:13:55;;;;;;;14.40;4.87;;;;;;;30.48;33.48;99021.81;4359720;32;34925;-86
2023/09/12 10:16:31;;;;;;;12.68;5.28;;;;;;;30.71;31.50;99009.44;4346065;32;34140;-87
2023/09/12 10:19:26;;;;;;;14.60;5.82;;;;;;;30.89;31.67;99005.44;4345803;32;34284;-84
2023/09/12 10:21:57;;;;;;;11.77;5.30;;;;;;;30.68;32.49;99002.47;4347874;32;33840;-84
2023/09/12 10:24:27;;;;;;;14.45;5.32;;;;;;;30.91;32.64;99008.88;4361709;32;33895;-84
2023/09/12 10:26:55;;;;;;;18.10;6.18;;;;;;;31.10;30.93;99011.03;4348240;32;34295;-85
2023/09/12 10:29:23;;;;;;;16.33;5.47;;;;;;;30.57;31.72;98997.03;4347913;32;34427;-84
2023/09/12 10:31:51;;;;;;;14.43;5.35;;;;;;;30.79;32.47;98999.06;4361687;32;33868;-85
2023/09/12 10:34:20;;;;;;;17.02;5.55;;;;;;;30.81;33.99;98996.28;4347949;32;33744;-85
2023/09/12 10:36:47;;;;;;;10.90;5.05;;;;;;;30.98;30.71;98999.41;4361066;32;34424;-85
2023/09/12 10:39:15;;;;;;;16.48;6.00;;;;;;;31.15;30.12;98978.56;4335896;32;33495;-84
2023/09/12 10:41:43;;;;;;;14.90;4.75;;;;;;;31.21;29.60;98988.81;4361352;32;35106;-84
2023/09/12 10:44:14;;;;;;;11.05;4.95;;;;;;;31.19;31.31;98986.25;4361220;32;34114;-85
2023/09/12 10:46:42;;;;;;;16.90;4.78;;;;;;;30.91;28.90;98970.53;4348054;32;34189;-86
2023/09/12 10:49:11;;;;;;;11.00;5.15;;;;;;;31.14;28.76;98972.37;4348105;32;33917;-87
2023/09/12 10:51:40;;;;;;;9.95;5.10;;;;;;;31.31;29.22;98979.16;4347388;32;33508;-86
2023/09/12 10:54:09;;;;;;;10.13;4.55;;;;;;;30.82;29.73;98977.44;4361235;32;34229;-85
2023/09/12 10:56:37;;;;;;;12.43;4.78;;;;;;;31.05;31.36;98982.91;4347529;32;32956;-84
2023/09/12 10:59:04;;;;;;;15.35;4.68;;;;;;;31.28;28.84;98973.97;4361235;32;34727;-85
2023/09/12 11:01:33;;;;;;;13.10;5.30;;;;;;;31.37;29.80;98978.69;4361244;32;34958;-86
2023/09/12 11:04:19;;;;;;;10.57;4.97;;;;;;;31.51;28.65;98969.59;4347827;32;33534;-84
2023/09/12 11:06:47;;;;;;;9.30;4.47;;;;;;;31.19;29.75;98977.38;4347320;32;32715;-84
2023/09/12 11:09:25;;;;;;;8.75;4.60;;;;;;;31.16;29.48;98969.56;4347962;32;33896;-84
2023/09/12 11:12:02;;;;;;;8.55;4.07;;;;;;;31.35;27.51;98961.88;4347725;32;34156;-84
2023/09/12 11:14:31;;;;;;;10.77;4.03;;;;;;;31.74;26.47;98955.25;4348088;32;33541;-84
2023/09/12 11:17:08;;;;;;;10.50;4.40;;;;;;;31.84;26.85;98955.41;4335525;32;34432;-83
2023/09/12 11:19:49;;;;;;;11.70;3.87;;;;;;;31.98;27.50;98952.53;4361021;32;33982;-84
2023/09/12 11:22:24;;;;;;;10.05;4.00;;;;;;;32.09;27.09;98948.16;4348138;32;34037;-85
2023/09/12 11:24:52;;;;;;;10.50;4.05;;;;;;;32.29;26.03;98950.09;4347763;32;34196;-83
2023/09/12 11:27:20;;;;;;;10.05;4.75;;;;;;;32.16;26.15;98954.72;4347454;32;33482;-84
2023/09/12 11:29:47;;;;;;;10.05;4.60;;;;;;;31.90;27.67;98952.28;4361187;32;34166;-84
2023/09/12 11:32:31;;;;;;;11.10;4.37;;;;;;;31.93;27.14;98957.37;4347540;32;34217;-84